Time;durP1;ratioP1;P1;durP2;ratioP2;P2;SDS_P1;SDS_P2;PMS_P1;PMS_P2;Temp;Humidity;BMP_temperature;BMP_pressure;BME280_temperature;BME280_humidity;BME280_pressure;Samples;Min_cycle;Max_cycle;Signal;HPM_P1;HPM_P2
2022/06/04 00:01:01;;;;;;;11.80;2.92;;;26.30;51.00;;;;;;7686141;23;20092;-71
2022/06/04 00:04:02;;;;;;;7.28;3.47;;;26.30;51.00;;;;;;7711337;23;20044;-72
2022/06/04 00:07:03;;;;;;;16.27;3.17;;;26.30;51.10;;;;;;7711924;23;20009;-72
2022/06/04 00:16:55;;;;;;;9.05;3.13;;;26.30;51.30;;;;;;7711093;23;20051;-71
2022/06/04 00:19:56;;;;;;;22.52;3.13;;;26.20;51.20;;;;;;7711617;23;20017;-72
2022/06/04 00:23:03;;;;;;;6.00;2.47;;;26.10;51.20;;;;;;7685957;23;20008;-72
2022/06/04 00:26:07;;;;;;;10.20;2.97;;;26.10;51.30;;;;;;7711561;23;20443;-72
2022/06/04 00:29:09;;;;;;;9.00;2.55;;;26.00;51.40;;;;;;7711048;23;20066;-72
2022/06/04 00:32:11;;;;;;;18.33;3.95;;;26.00;51.60;;;;;;7685567;23;20012;-71
2022/06/04 00:35:13;;;;;;;10.95;2.90;;;25.90;51.60;;;;;;7712000;23;20488;-72
2022/06/04 00:38:16;;;;;;;10.48;3.38;;;25.80;51.70;;;;;;7662449;23;20100;-72
2022/06/04 00:41:20;;;;;;;15.18;2.75;;;25.70;51.80;;;;;;7737342;23;20094;-71
2022/06/04 00:45:00;;;;;;;13.07;2.45;;;25.70;52.00;;;;;;7713066;23;20428;-71
2022/06/04 00:48:06;;;;;;;13.35;2.92;;;25.60;52.10;;;;;;7679197;23;20092;-71
2022/06/04 00:51:08;;;;;;;7.90;2.63;;;25.70;52.10;;;;;;7684169;23;20024;-71
2022/06/04 00:54:09;;;;;;;5.32;2.88;;;25.70;52.20;;;;;;7721328;23;20024;-71
2022/06/04 00:57:24;;;;;;;8.65;2.72;;;25.60;52.30;;;;;;7735880;23;20023;-71
2022/06/04 01:00:32;;;;;;;12.77;3.13;;;25.60;52.30;;;;;;7709106;23;20103;-73
2022/06/04 01:03:50;;;;;;;7.68;3.00;;;25.60;52.30;;;;;;7710597;23;20099;-71
2022/06/04 01:07:04;;;;;;;12.57;2.72;;;25.60;52.40;;;;;;7686498;23;20254;-71
2022/06/04 01:10:11;;;;;;;7.38;2.70;;;25.60;52.50;;;;;;7685167;23;20031;-71
2022/06/04 01:13:25;;;;;;;11.05;3.40;;;25.60;52.40;;;;;;7684906;23;20482;-72
2022/06/04 01:16:31;;;;;;;7.88;2.60;;;25.50;52.50;;;;;;7710974;23;20079;-71
2022/06/04 01:19:49;;;;;;;6.68;2.58;;;25.40;52.50;;;;;;7710768;23;20012;-71
2022/06/04 01:22:54;;;;;;;;;;;25.40;52.70;;;;;;7711268;23;20096;-70
2022/06/04 01:26:10;;;;;;;5.78;2.70;;;25.40;52.90;;;;;;7735198;23;19975;-72
2022/06/04 01:29:23;;;;;;;7.30;2.55;;;25.30;52.80;;;;;;7710511;23;20013;-73
2022/06/04 01:32:27;;;;;;;14.27;3.00;;;25.30;53.00;;;;;;7684749;23;20059;-71
2022/06/04 01:35:35;;;;;;;17.38;3.60;;;25.30;53.10;;;;;;7685204;23;20017;-72
2022/06/04 01:38:56;;;;;;;;;;;25.20;53.20;;;;;;7685663;23;20312;-72
2022/06/04 01:42:02;;;;;;;7.47;2.97;;;25.30;53.40;;;;;;7708648;23;20307;-70
2022/06/04 01:45:08;;;;;;;12.43;3.08;;;25.30;53.30;;;;;;7659757;23;20095;-72
2022/06/04 01:48:10;;;;;;;8.60;3.03;;;25.20;53.40;;;;;;7734733;23;20071;-72
2022/06/04 01:51:18;;;;;;;8.95;3.28;;;25.20;53.60;;;;;;7685208;23;20028;-71
2022/06/04 01:54:28;;;;;;;15.80;3.50;;;25.10;53.70;;;;;;7686178;23;20424;-72
2022/06/04 01:57:35;;;;;;;10.60;3.33;;;25.10;53.80;;;;;;7714185;23;20298;-71
2022/06/04 02:00:47;;;;;;;8.83;2.60;;;25.10;53.90;;;;;;7710334;23;20027;-71
2022/06/04 02:03:57;;;;;;;11.63;2.97;;;25.10;54.00;;;;;;7735262;23;20063;-72
2022/06/04 02:11:01;;;;;;;6.20;2.72;;;25.10;54.20;;;;;;7710018;23;20020;-71
2022/06/04 02:14:05;;;;;;;12.75;3.10;;;25.00;54.40;;;;;;7682528;23;20464;-72
2022/06/04 02:17:13;;;;;;;10.57;3.28;;;25.00;54.60;;;;;;7684599;23;20031;-72
2022/06/04 02:20:15;;;;;;;10.25;2.67;;;24.90;54.70;;;;;;7718305;23;20028;-71
2022/06/04 02:23:16;;;;;;;13.98;2.85;;;24.90;54.70;;;;;;7710342;23;20076;-71
2022/06/04 02:26:18;;;;;;;11.50;2.92;;;24.90;54.70;;;;;;7684416;23;20027;-71
2022/06/04 02:29:22;;;;;;;11.88;2.70;;;24.90;54.70;;;;;;7732425;23;20027;-71
2022/06/04 02:32:55;;;;;;;9.50;2.45;;;24.90;54.60;;;;;;7684201;23;20020;-72
2022/06/04 02:36:03;;;;;;;7.22;2.38;;;24.80;54.70;;;;;;7709143;23;20424;-72
2022/06/04 02:39:47;;;;;;;5.72;2.50;;;24.80;54.80;;;;;;7683890;23;20027;-72
2022/06/04 02:43:06;;;;;;;13.30;2.88;;;24.70;55.00;;;;;;7532317;23;20049;-71
2022/06/04 02:46:33;;;;;;;;;;;24.70;55.00;;;;;;7534600;23;20089;-72
2022/06/04 02:49:44;;;;;;;7.20;2.30;;;24.70;55.40;;;;;;7557122;23;20006;-74
2022/06/04 02:52:48;;;;;;;11.05;2.67;;;24.60;55.00;;;;;;7559706;23;20030;-72
2022/06/04 02:55:55;;;;;;;7.68;2.72;;;24.60;55.10;;;;;;7560415;23;20018;-71
2022/06/04 02:59:00;;;;;;;7.00;2.33;;;24.60;55.20;;;;;;7560417;23;20014;-71
2022/06/04 03:02:04;;;;;;;5.68;2.42;;;24.50;55.30;;;;;;7560691;23;20022;-71
2022/06/04 03:05:10;;;;;;;14.80;2.80;;;24.50;55.40;;;;;;7562082;23;20033;-72
2022/06/04 03:08:12;;;;;;;12.73;2.58;;;24.50;55.40;;;;;;7562418;23;20620;-72
2022/06/04 03:11:13;;;;;;;9.93;2.40;;;24.50;55.40;;;;;;7514333;23;20014;-72
2022/06/04 03:14:16;;;;;;;10.43;2.53;;;24.50;55.50;;;;;;7538018;23;20022;-72
2022/06/04 03:17:17;;;;;;;11.23;2.45;;;24.50;55.50;;;;;;7560848;23;20407;-72
2022/06/04 03:20:24;;;;;;;11.57;2.80;;;24.50;55.40;;;;;;7660111;23;20032;-71
2022/06/04 03:23:25;;;;;;;10.43;3.05;;;24.50;55.50;;;;;;7685238;23;20332;-72
2022/06/04 03:26:26;;;;;;;7.35;2.55;;;24.50;55.50;;;;;;7711345;23;20436;-73
2022/06/04 03:29:27;;;;;;;7.13;2.60;;;24.50;55.50;;;;;;7684853;23;20024;-71
2022/06/04 03:32:28;;;;;;;9.93;2.42;;;24.50;55.50;;;;;;7735366;22;20012;-71
2022/06/04 03:35:29;;;;;;;8.85;2.63;;;24.40;55.50;;;;;;7734643;23;20024;-72
2022/06/04 03:38:30;;;;;;;16.05;2.60;;;24.40;55.60;;;;;;7711193;23;20095;-73
2022/06/04 03:41:32;;;;;;;6.35;2.28;;;24.40;55.70;;;;;;7711180;23;20028;-71
2022/06/04 03:44:33;;;;;;;11.05;3.00;;;24.40;55.70;;;;;;7684458;23;20016;-71
2022/06/04 03:47:37;;;;;;;10.18;2.55;;;24.40;55.70;;;;;;7711051;23;20016;-72
2022/06/04 03:50:38;;;;;;;16.95;2.92;;;24.40;55.70;;;;;;7710529;23;20021;-72
2022/06/04 03:53:39;;;;;;;9.88;2.75;;;24.40;55.70;;;;;;7685586;23;20039;-72
2022/06/04 03:56:41;;;;;;;15.80;2.95;;;24.40;55.70;;;;;;7735421;23;20016;-72
2022/06/04 03:59:42;;;;;;;11.18;2.65;;;24.40;55.70;;;;;;7711351;23;20024;-73
2022/06/04 04:02:46;;;;;;;11.98;3.17;;;24.40;55.70;;;;;;7684990;23;20075;-72
2022/06/04 04:05:55;;;;;;;17.15;3.25;;;24.30;55.80;;;;;;7684920;23;20368;-72
2022/06/04 04:08:56;;;;;;;9.82;2.42;;;24.30;55.80;;;;;;7684768;23;20289;-72
2022/06/04 04:11:58;;;;;;;9.07;2.83;;;24.40;55.80;;;;;;7711050;23;20444;-72
2022/06/04 04:15:00;;;;;;;12.02;2.63;;;24.40;55.70;;;;;;7684709;23;20013;-72
2022/06/04 04:18:01;;;;;;;9.23;2.65;;;24.30;55.70;;;;;;7684650;23;20016;-72
2022/06/04 04:21:10;;;;;;;8.02;3.13;;;24.40;55.80;;;;;;7684650;23;20012;-72
2022/06/04 04:24:11;;;;;;;12.32;2.60;;;24.30;55.80;;;;;;7710488;23;20084;-72
2022/06/04 04:27:13;;;;;;;6.43;2.47;;;24.40;55.90;;;;;;7711074;23;20316;-72
2022/06/04 04:30:17;;;;;;;8.15;2.92;;;24.40;55.80;;;;;;7711578;23;20020;-72
2022/06/04 04:33:19;;;;;;;10.00;2.63;;;24.30;55.80;;;;;;7687225;23;20024;-72
2022/06/04 04:36:20;;;;;;;11.48;3.08;;;24.30;56.00;;;;;;7686201;23;20068;-72
2022/06/04 04:39:21;;;;;;;10.88;2.90;;;24.30;55.90;;;;;;7712468;23;20017;-72
2022/06/04 04:42:23;;;;;;;12.90;3.10;;;24.30;56.10;;;;;;7687524;23;20091;-72
2022/06/04 04:45:25;;;;;;;10.32;3.10;;;24.20;56.20;;;;;;7686983;23;20092;-72
2022/06/04 04:48:27;;;;;;;11.07;2.65;;;24.20;56.30;;;;;;7713211;23;20416;-72
2022/06/04 04:51:30;;;;;;;7.53;2.60;;;24.20;56.40;;;;;;7687080;23;20433;-72
2022/06/04 04:54:31;;;;;;;8.30;2.97;;;24.20;56.50;;;;;;7712874;23;20471;-72
2022/06/04 04:57:32;;;;;;;12.05;2.80;;;24.20;56.50;;;;;;7713595;23;20019;-72
2022/06/04 05:00:33;;;;;;;12.32;2.63;;;24.20;56.50;;;;;;7687307;23;20021;-72
2022/06/04 05:03:35;;;;;;;10.93;2.85;;;24.20;56.60;;;;;;7686861;23;20017;-72
2022/06/04 05:06:36;;;;;;;8.40;2.60;;;24.20;56.60;;;;;;7711663;23;20024;-72
2022/06/04 05:09:39;;;;;;;11.88;3.38;;;24.30;56.60;;;;;;7713214;23;20374;-72
2022/06/04 05:12:40;;;;;;;7.47;2.92;;;24.30;56.50;;;;;;7736756;23;20318;-72
2022/06/04 05:15:41;;;;;;;12.32;3.05;;;24.30;56.50;;;;;;7712984;23;20439;-73
2022/06/04 05:18:42;;;;;;;8.63;2.95;;;24.30;56.40;;;;;;7686462;23;20017;-71
2022/06/04 05:21:50;;;;;;;9.52;3.15;;;24.40;56.20;;;;;;7661419;23;20012;-72
2022/06/04 05:24:51;;;;;;;14.38;3.00;;;24.50;56.20;;;;;;7711578;23;20371;-72
2022/06/04 05:27:52;;;;;;;10.40;2.60;;;24.50;56.10;;;;;;7710941;23;20024;-72
2022/06/04 05:30:53;;;;;;;12.82;2.63;;;24.50;56.00;;;;;;7712563;23;20356;-72
2022/06/04 05:33:55;;;;;;;11.23;3.40;;;24.40;55.90;;;;;;7711926;23;20079;-72
2022/06/04 05:36:55;;;;;;;14.55;3.13;;;24.40;55.80;;;;;;7711881;23;20021;-72
2022/06/04 05:39:57;;;;;;;8.55;2.80;;;24.40;55.90;;;;;;7685185;23;20392;-71
2022/06/04 05:42:58;;;;;;;10.68;2.90;;;24.30;55.90;;;;;;7711771;23;20012;-71
2022/06/04 05:46:01;;;;;;;11.45;3.00;;;24.30;56.00;;;;;;7711012;23;20023;-72
2022/06/04 05:49:02;;;;;;;12.75;3.75;;;24.30;56.00;;;;;;7685967;23;20087;-72
2022/06/04 05:52:03;;;;;;;12.48;3.53;;;24.40;56.00;;;;;;7686011;23;20019;-72
2022/06/04 05:55:05;;;;;;;13.68;3.60;;;24.40;56.00;;;;;;7686664;23;20357;-72
2022/06/04 05:58:06;;;;;;;8.10;3.17;;;24.30;56.00;;;;;;7686312;23;20322;-72
2022/06/04 06:01:07;;;;;;;11.90;3.55;;;24.30;56.10;;;;;;7712240;23;20012;-71
2022/06/04 06:04:11;;;;;;;19.17;3.25;;;24.30;56.10;;;;;;7685753;23;20008;-71
2022/06/04 06:07:12;;;;;;;9.10;2.85;;;24.40;56.20;;;;;;7711705;22;20038;-73
2022/06/04 06:10:13;;;;;;;8.68;2.85;;;24.50;56.10;;;;;;7711654;23;20360;-72
2022/06/04 06:13:14;;;;;;;9.70;3.40;;;24.50;56.00;;;;;;7686213;23;20013;-73
2022/06/04 06:16:20;;;;;;;12.02;3.42;;;24.50;55.90;;;;;;7712500;23;20017;-71
2022/06/04 06:19:23;;;;;;;13.10;3.33;;;24.60;55.80;;;;;;7738622;23;20013;-71
2022/06/04 06:22:24;;;;;;;13.20;3.45;;;24.70;55.80;;;;;;7711173;23;20088;-71
2022/06/04 06:25:25;;;;;;;17.50;4.00;;;24.70;55.80;;;;;;7685224;23;20052;-71
2022/06/04 06:28:26;;;;;;;9.85;3.83;;;24.70;55.80;;;;;;7711333;23;20132;-71
2022/06/04 06:31:28;;;;;;;9.48;3.50;;;24.80;55.80;;;;;;7735015;23;20024;-71
2022/06/04 06:34:29;;;;;;;7.80;3.28;;;24.80;55.70;;;;;;7711434;23;20023;-74
2022/06/04 06:37:30;;;;;;;10.40;3.60;;;24.90;55.60;;;;;;7710427;23;20017;-72
2022/06/04 06:40:31;;;;;;;12.38;4.00;;;25.00;55.50;;;;;;7695055;23;20008;-72
2022/06/04 06:46:42;;;;;;;14.65;4.13;;;25.20;55.30;;;;;;7735527;23;20020;-71
2022/06/04 06:49:43;;;;;;;20.88;3.67;;;25.30;55.10;;;;;;7684341;23;20056;-71
2022/06/04 06:52:44;;;;;;;16.38;4.18;;;25.40;54.90;;;;;;7710525;23;20024;-73
2022/06/04 06:55:45;;;;;;;10.82;3.55;;;25.40;54.80;;;;;;7677975;23;20035;-73
2022/06/04 06:58:47;;;;;;;12.05;3.80;;;25.50;54.70;;;;;;7703006;23;20438;-71
2022/06/04 07:01:49;;;;;;;15.52;3.17;;;25.70;54.40;;;;;;7711134;23;20040;-71
2022/06/04 07:04:49;;;;;;;8.65;3.85;;;25.80;54.10;;;;;;7685151;23;20425;-72
2022/06/04 07:07:50;;;;;;;12.52;3.60;;;25.80;53.80;;;;;;7710053;23;20020;-72
2022/06/04 07:10:51;;;;;;;9.27;3.60;;;25.90;53.60;;;;;;7735133;23;20016;-72
2022/06/04 07:13:53;;;;;;;13.38;3.38;;;26.10;53.00;;;;;;7735076;23;20535;-72
2022/06/04 07:16:57;;;;;;;14.30;3.83;;;26.10;53.40;;;;;;7735056;23;20012;-72
2022/06/04 07:19:58;;;;;;;17.63;3.60;;;26.20;53.20;;;;;;7685084;23;20082;-73
2022/06/04 07:22:59;;;;;;;15.95;3.70;;;26.30;53.00;;;;;;7685037;23;20024;-73
2022/06/04 07:26:00;;;;;;;10.65;3.35;;;26.40;52.80;;;;;;7734661;23;20016;-71
2022/06/04 07:29:02;;;;;;;11.80;3.80;;;26.50;52.70;;;;;;7684932;23;20088;-71
2022/06/04 07:32:04;;;;;;;19.30;3.38;;;26.70;52.40;;;;;;7684735;23;20024;-72
2022/06/04 07:35:05;;;;;;;15.27;3.50;;;26.80;52.00;;;;;;7685323;23;20408;-72
2022/06/04 07:38:06;;;;;;;11.18;2.70;;;27.00;51.80;;;;;;7682774;23;20012;-72
2022/06/04 07:41:07;;;;;;;14.10;3.72;;;27.10;51.60;;;;;;7684396;23;20019;-72
2022/06/04 07:44:08;;;;;;;14.07;3.30;;;27.20;51.50;;;;;;7710706;23;20009;-72
2022/06/04 07:47:09;;;;;;;11.60;3.50;;;27.30;51.20;;;;;;7710575;23;20062;-74
2022/06/04 07:50:12;;;;;;;9.25;2.88;;;27.50;50.90;;;;;;7734077;23;20033;-73
2022/06/04 07:53:13;;;;;;;9.18;3.25;;;27.60;50.70;;;;;;7733640;23;20055;-73
2022/06/04 07:56:17;;;;;;;10.07;3.60;;;27.80;50.60;;;;;;7709517;23;20091;-72
2022/06/04 07:59:18;;;;;;;8.82;3.05;;;27.90;50.10;;;;;;7684241;23;20420;-73
2022/06/04 08:02:21;;;;;;;17.52;3.42;;;28.00;49.60;;;;;;7684449;23;20021;-73
2022/06/04 08:05:22;;;;;;;10.70;3.72;;;28.10;49.40;;;;;;7685654;23;20123;-72
2022/06/04 08:08:23;;;;;;;7.50;2.67;;;28.30;49.20;;;;;;7712648;23;20090;-72
2022/06/04 08:11:30;;;;;;;10.35;2.83;;;28.40;49.20;;;;;;7686764;23;20016;-72
2022/06/04 08:14:31;;;;;;;8.60;2.92;;;28.50;48.40;;;;;;7707728;23;20016;-73
2022/06/04 08:17:33;;;;;;;13.77;2.80;;;28.70;48.20;;;;;;7727354;23;20027;-73
2022/06/04 08:20:34;;;;;;;8.07;2.85;;;28.80;47.90;;;;;;7662424;23;20008;-72
2022/06/04 08:23:35;;;;;;;7.90;2.60;;;28.90;47.60;;;;;;7735755;23;20019;-72
2022/06/04 08:26:37;;;;;;;13.55;3.28;;;29.00;47.20;;;;;;7686901;23;20012;-72
2022/06/04 08:29:38;;;;;;;11.18;2.60;;;29.00;46.90;;;;;;7685622;23;20027;-72
2022/06/04 08:32:39;;;;;;;12.32;3.15;;;29.20;46.80;;;;;;7711532;23;20114;-73
2022/06/04 08:35:40;;;;;;;8.68;2.80;;;29.30;46.70;;;;;;7711912;23;20027;-72
2022/06/04 08:38:42;;;;;;;9.05;3.08;;;29.40;46.30;;;;;;7686505;23;20036;-72
2022/06/04 08:41:57;;;;;;;10.07;3.17;;;29.40;45.80;;;;;;7712262;23;20078;-72
2022/06/04 08:45:00;;;;;;;14.55;3.60;;;29.40;45.70;;;;;;7710670;23;20021;-72
2022/06/04 08:48:02;;;;;;;9.05;3.53;;;29.50;45.70;;;;;;7685928;23;20013;-72
2022/06/04 08:51:12;;;;;;;12.82;4.68;;;29.60;45.40;;;;;;7685875;23;20033;-72
2022/06/04 08:58:03;;;;;;;19.30;6.13;;;29.60;44.90;;;;;;7737760;23;20420;-73
2022/06/04 09:01:18;;;;;;;9.75;3.70;;;29.70;45.00;;;;;;7705010;23;20015;-74
2022/06/04 09:04:44;;;;;;;16.80;5.00;;;29.80;44.80;;;;;;7712789;23;20042;-73
2022/06/04 09:07:50;;;;;;;16.98;5.63;;;29.90;44.50;;;;;;7685510;23;20043;-72
2022/06/04 09:10:57;;;;;;;9.45;3.00;;;30.00;44.30;;;;;;7687660;23;20103;-71
2022/06/04 09:14:22;;;;;;;7.50;2.55;;;30.10;43.90;;;;;;7713002;23;20017;-72
2022/06/04 09:17:48;;;;;;;13.70;3.03;;;30.10;43.40;;;;;;7713396;23;20016;-72
2022/06/04 09:20:53;;;;;;;14.50;2.90;;;30.10;43.20;;;;;;7683300;23;20121;-72
2022/06/04 09:23:55;;;;;;;10.88;3.13;;;30.10;43.50;;;;;;7710541;23;20101;-72
2022/06/04 09:27:04;;;;;;;11.52;3.13;;;30.10;43.10;;;;;;7711105;23;20103;-73
2022/06/04 09:30:20;;;;;;;19.85;6.13;;;30.20;43.00;;;;;;7708642;23;20017;-74
2022/06/04 09:33:48;;;;;;;15.27;4.35;;;30.20;42.70;;;;;;7733786;23;20051;-73
2022/06/04 09:36:50;;;;;;;15.93;2.70;;;30.30;42.70;;;;;;7732147;23;20106;-71
2022/06/04 09:40:20;;;;;;;13.05;2.67;;;30.50;42.70;;;;;;7708622;23;20293;-72
2022/06/04 09:43:21;;;;;;;8.52;2.30;;;30.60;42.60;;;;;;7558779;23;20096;-73
2022/06/04 09:46:25;;;;;;;12.35;3.38;;;30.80;42.30;;;;;;7583589;23;20026;-73
2022/06/04 09:49:42;;;;;;;10.07;2.95;;;30.90;42.10;;;;;;7534381;23;20143;-73
2022/06/04 09:52:46;;;;;;;9.25;3.13;;;31.00;41.90;;;;;;7582203;23;20015;-73
2022/06/04 09:56:06;;;;;;;10.35;3.63;;;31.10;41.40;;;;;;7534073;23;20029;-72
2022/06/04 09:59:29;;;;;;;7.07;2.95;;;31.10;41.00;;;;;;7581824;23;20022;-73
2022/06/04 10:02:30;;;;;;;16.52;3.15;;;31.20;41.10;;;;;;7558367;23;20018;-73
2022/06/04 10:05:32;;;;;;;10.75;2.83;;;31.30;41.00;;;;;;7558458;23;20426;-73
2022/06/04 10:11:57;;;;;;;12.38;2.72;;;31.60;40.80;;;;;;7534139;23;20014;-73
2022/06/04 10:15:00;;;;;;;11.68;4.85;;;31.70;40.50;;;;;;7535252;23;20481;-72
2022/06/04 10:18:06;;;;;;;7.70;2.97;;;31.80;40.50;;;;;;7559895;23;20022;-72
2022/06/04 10:21:23;;;;;;;5.15;2.72;;;31.80;40.40;;;;;;7639939;23;20086;-72
2022/06/04 10:24:28;;;;;;;6.50;2.95;;;31.80;40.10;;;;;;7670253;23;20043;-72
2022/06/04 10:27:32;;;;;;;9.73;2.67;;;31.90;40.00;;;;;;7695926;23;20013;-72
2022/06/04 10:31:07;;;;;;;14.70;3.03;;;32.00;40.00;;;;;;7673057;23;20013;-73
2022/06/04 10:34:42;;;;;;;5.65;2.63;;;32.00;39.80;;;;;;7670155;23;20397;-72
2022/06/04 10:38:22;;;;;;;18.67;3.28;;;32.10;39.60;;;;;;7668391;23;20394;-71
2022/06/04 10:41:32;;;;;;;11.73;2.63;;;32.20;39.50;;;;;;7647173;23;20032;-71
2022/06/04 10:44:52;;;;;;;11.70;2.70;;;32.20;39.30;;;;;;7672206;23;20373;-73
2022/06/04 10:48:11;;;;;;;6.95;2.95;;;32.30;39.20;;;;;;7721312;23;20366;-73
2022/06/04 10:51:26;;;;;;;17.20;3.17;;;32.30;39.10;;;;;;7669979;23;20033;-72
2022/06/04 10:54:43;;;;;;;16.85;2.88;;;32.30;39.10;;;;;;7672249;23;20013;-73
2022/06/04 10:58:01;;;;;;;11.02;2.70;;;32.40;39.10;;;;;;7719321;23;20040;-72
2022/06/04 11:01:05;;;;;;;17.20;3.15;;;32.50;39.00;;;;;;7669948;23;20017;-73
2022/06/04 11:04:09;;;;;;;15.43;3.22;;;32.90;38.30;;;;;;7672033;23;20009;-73
2022/06/04 11:07:40;;;;;;;11.07;3.42;;;33.80;36.80;;;;;;7671805;23;20032;-73
2022/06/04 11:11:10;;;;;;;12.48;3.05;;;34.70;35.60;;;;;;7670792;23;20019;-73
2022/06/04 11:14:24;;;;;;;11.65;2.72;;;35.70;34.20;;;;;;7669043;23;20086;-74
2022/06/04 11:17:51;;;;;;;9.10;3.25;;;36.70;32.90;;;;;;7672279;23;20305;-73
2022/06/04 11:21:04;;;;;;;8.95;2.65;;;37.30;31.70;;;;;;7672947;23;20017;-72
2022/06/04 11:24:19;;;;;;;13.68;2.97;;;37.90;31.00;;;;;;7720033;23;20355;-72
2022/06/04 11:27:23;;;;;;;6.88;2.45;;;38.40;30.20;;;;;;7672189;23;20029;-71
2022/06/04 11:30:53;;;;;;;12.75;2.50;;;38.60;29.80;;;;;;7674260;23;20013;-72
2022/06/04 11:33:57;;;;;;;11.32;2.83;;;38.80;29.50;;;;;;7661718;23;20023;-72
2022/06/04 11:37:25;;;;;;;13.80;2.90;;;39.20;29.30;;;;;;7670907;23;20009;-73
2022/06/04 11:40:34;;;;;;;9.13;2.67;;;39.40;28.90;;;;;;7671756;23;20301;-72
2022/06/04 11:44:12;;;;;;;17.58;2.58;;;39.70;28.40;;;;;;7672670;23;20071;-72
2022/06/04 11:47:34;;;;;;;10.10;2.88;;;40.00;28.20;;;;;;7671957;23;20036;-73
2022/06/04 11:51:07;;;;;;;15.18;3.10;;;40.30;27.90;;;;;;7697707;23;20032;-73
2022/06/04 11:54:25;;;;;;;6.05;2.50;;;40.70;27.60;;;;;;7597390;23;20013;-73
2022/06/04 11:58:00;;;;;;;10.57;2.58;;;40.90;27.30;;;;;;7597300;23;20010;-73
2022/06/04 12:01:15;;;;;;;10.68;3.10;;;41.00;27.00;;;;;;7622210;23;20014;-72
2022/06/04 12:04:40;;;;;;;14.07;3.42;;;41.00;26.70;;;;;;7597370;23;20444;-71
2022/06/04 12:07:44;;;;;;;8.85;2.83;;;40.70;26.80;;;;;;7573057;23;20026;-73
2022/06/04 12:11:00;;;;;;;11.32;2.88;;;40.70;27.00;;;;;;7573600;23;20014;-73
2022/06/04 12:14:31;;;;;;;14.32;3.53;;;40.70;26.90;;;;;;7621357;23;20073;-72
2022/06/04 12:17:54;;;;;;;10.13;2.90;;;40.90;26.70;;;;;;7621112;23;20082;-73
2022/06/04 12:24:43;;;;;;;16.33;3.95;;;41.70;25.80;;;;;;7594428;23;20674;-73
2022/06/04 12:27:56;;;;;;;22.40;3.97;;;42.00;25.60;;;;;;7597962;23;20021;-73
2022/06/04 12:31:01;;;;;;;13.88;2.78;;;42.30;25.50;;;;;;7706474;23;20392;-73
2022/06/04 12:34:23;;;;;;;14.90;2.95;;;42.60;25.20;;;;;;7682901;23;20017;-73
2022/06/04 12:37:29;;;;;;;7.40;2.17;;;42.90;24.90;;;;;;7709505;23;20029;-72
2022/06/04 12:40:34;;;;;;;11.88;3.05;;;43.00;24.70;;;;;;7710343;23;20021;-72
2022/06/04 12:43:38;;;;;;;11.27;2.50;;;43.10;24.60;;;;;;7708850;23;20159;-72
2022/06/04 12:46:39;;;;;;;11.63;2.63;;;43.40;24.40;;;;;;7684315;23;20374;-73
2022/06/04 12:49:56;;;;;;;11.30;2.20;;;43.70;23.60;;;;;;7672335;23;20032;-72
2022/06/04 12:53:22;;;;;;;15.85;2.58;;;43.80;23.20;;;;;;7723790;23;20037;-73
2022/06/04 12:56:30;;;;;;;10.82;2.83;;;43.70;22.90;;;;;;7721485;23;20024;-73
2022/06/04 12:59:42;;;;;;;11.02;2.20;;;43.50;22.90;;;;;;7697181;23;20143;-73
2022/06/04 13:03:06;;;;;;;12.68;2.10;;;43.10;23.20;;;;;;7645874;23;20031;-73
2022/06/04 13:06:29;;;;;;;11.32;2.67;;;42.30;23.70;;;;;;7720759;23;20116;-73
2022/06/04 13:10:00;;;;;;;15.07;2.85;;;41.70;24.60;;;;;;7672002;23;20021;-73
2022/06/04 13:13:23;;;;;;;13.43;2.83;;;42.10;23.90;;;;;;7669662;23;20037;-73
2022/06/04 13:16:27;;;;;;;10.25;2.75;;;42.90;23.40;;;;;;7721069;23;20009;-72
2022/06/04 13:20:00;;;;;;;11.55;2.75;;;43.20;23.00;;;;;;7672867;23;20024;-73
2022/06/04 13:23:18;;;;;;;9.82;2.45;;;43.10;23.10;;;;;;7670469;23;20036;-72
2022/06/04 13:26:33;;;;;;;17.52;2.63;;;43.10;23.00;;;;;;7672571;23;20061;-72
2022/06/04 13:29:37;;;;;;;12.73;2.55;;;43.30;23.00;;;;;;7671994;23;20025;-73
2022/06/04 13:32:37;;;;;;;14.68;3.50;;;43.80;22.70;;;;;;7672448;23;20417;-73
2022/06/04 13:35:52;;;;;;;11.10;2.60;;;43.80;22.50;;;;;;7671901;23;20017;-73
2022/06/04 13:38:58;;;;;;;10.57;2.90;;;42.60;23.50;;;;;;7671863;23;20021;-73
2022/06/04 13:42:11;;;;;;;14.35;2.85;;;41.30;24.60;;;;;;7719895;23;20275;-72
2022/06/04 13:45:11;;;;;;;19.75;2.60;;;41.00;25.10;;;;;;7673569;23;20016;-72
2022/06/04 13:48:23;;;;;;;15.85;2.75;;;40.70;25.10;;;;;;7673690;23;20049;-72
2022/06/04 13:51:26;;;;;;;9.02;2.55;;;39.80;25.90;;;;;;7669193;23;20025;-72
2022/06/04 13:54:30;;;;;;;17.55;3.22;;;40.00;26.10;;;;;;7695333;23;20055;-73
2022/06/04 13:57:42;;;;;;;11.57;2.47;;;41.10;25.10;;;;;;7719559;23;20016;-72
2022/06/04 14:00:48;;;;;;;12.23;2.92;;;42.10;24.20;;;;;;7671004;23;20009;-73
2022/06/04 14:07:15;;;;;;;15.65;2.28;;;42.20;24.00;;;;;;7670716;23;20024;-73
2022/06/04 14:10:21;;;;;;;15.43;2.83;;;41.30;24.80;;;;;;7720038;23;20098;-72
2022/06/04 14:13:37;;;;;;;20.57;2.93;;;40.50;25.60;;;;;;7671945;23;20044;-73
2022/06/04 14:16:52;;;;;;;11.95;2.45;;;40.20;26.10;;;;;;7671459;23;20017;-72
2022/06/04 14:20:12;;;;;;;18.38;3.05;;;39.80;26.50;;;;;;7670156;23;20012;-72
2022/06/04 14:23:29;;;;;;;12.60;2.60;;;39.10;27.20;;;;;;7670767;23;20488;-72
2022/06/04 14:27:10;;;;;;;9.02;2.80;;;38.50;28.00;;;;;;7671265;23;20027;-72
2022/06/04 14:30:28;;;;;;;7.80;2.50;;;38.20;28.50;;;;;;7671191;23;20023;-72
2022/06/04 14:33:39;;;;;;;12.35;3.00;;;39.40;27.50;;;;;;6314434;27;20402;-72
2022/06/04 14:36:51;;;;;;;18.15;2.92;;;40.80;26.20;;;;;;6307644;28;20123;-72
2022/06/04 14:39:56;;;;;;;10.13;2.60;;;40.50;26.40;;;;;;6288606;28;20040;-72
2022/06/04 14:43:06;;;;;;;16.60;2.60;;;40.50;26.70;;;;;;6292709;28;20082;-72
2022/06/04 14:46:28;;;;;;;13.82;2.58;;;41.20;25.80;;;;;;6292902;28;20021;-72
2022/06/04 14:49:35;;;;;;;11.77;2.05;;;41.00;25.90;;;;;;6288618;28;20406;-72
2022/06/04 14:52:46;;;;;;;17.98;3.05;;;41.50;25.60;;;;;;6291969;28;20032;-72
2022/06/04 14:56:24;;;;;;;14.30;2.53;;;41.50;25.50;;;;;;6322735;28;20364;-72
2022/06/04 14:59:38;;;;;;;18.42;3.60;;;42.40;25.00;;;;;;6292683;28;20028;-71
2022/06/04 15:02:49;;;;;;;10.00;2.53;;;42.50;24.50;;;;;;6288741;28;20381;-71
2022/06/04 15:06:00;;;;;;;19.60;2.95;;;41.70;25.00;;;;;;6289586;28;20037;-72
2022/06/04 15:09:10;;;;;;;19.95;2.92;;;41.70;25.10;;;;;;6291767;28;20025;-72
2022/06/04 15:12:23;;;;;;;13.40;3.13;;;41.70;25.10;;;;;;6303553;28;20417;-72
2022/06/04 15:15:42;;;;;;;13.50;2.90;;;42.00;24.90;;;;;;6290186;28;20044;-73
2022/06/04 15:18:52;;;;;;;13.93;2.60;;;42.00;24.70;;;;;;6306884;28;20032;-72
2022/06/04 15:21:58;;;;;;;14.20;3.10;;;41.40;25.10;;;;;;6290053;28;20377;-73
2022/06/04 15:25:14;;;;;;;16.13;2.17;;;40.70;25.80;;;;;;6318374;28;20114;-72
2022/06/04 15:35:31;;;;;;;19.83;2.83;;;42.20;24.60;;;;;;6291251;28;20064;-72
2022/06/04 15:38:34;;;;;;;11.05;2.72;;;42.10;24.60;;;;;;6291632;28;20170;-72
2022/06/04 15:41:53;;;;;;;16.02;2.53;;;42.00;24.70;;;;;;6288478;28;20028;-72
2022/06/04 15:45:16;;;;;;;13.32;2.08;;;42.30;24.40;;;;;;6289310;28;20143;-72
2022/06/04 15:48:27;;;;;;;15.00;2.67;;;42.60;24.10;;;;;;6273847;28;20021;-72
2022/06/04 15:55:28;;;;;;;10.52;2.83;;;42.70;23.90;;;;;;6274301;28;20319;-73
2022/06/04 15:58:35;;;;;;;14.25;2.50;;;43.10;23.60;;;;;;6273282;28;20119;-72
2022/06/04 16:01:57;;;;;;;16.50;2.72;;;43.40;23.40;;;;;;6300264;28;20466;-72
2022/06/04 16:05:07;;;;;;;15.73;2.67;;;43.60;23.30;;;;;;6223273;28;20104;-72
2022/06/04 16:08:16;;;;;;;15.45;2.78;;;43.90;22.90;;;;;;6221919;28;20036;-72
2022/06/04 16:11:39;;;;;;;13.02;3.25;;;44.30;22.70;;;;;;6206547;28;20375;-73
2022/06/04 16:14:48;;;;;;;13.00;2.85;;;44.30;22.50;;;;;;6221591;28;20539;-72
2022/06/04 16:18:28;;;;;;;13.93;2.33;;;44.10;22.70;;;;;;6223555;28;20084;-72
2022/06/04 16:21:55;;;;;;;12.68;3.03;;;44.10;22.80;;;;;;6111317;29;20047;-72
2022/06/04 16:24:55;;;;;;;10.77;2.60;;;44.30;22.70;;;;;;6110790;29;20158;-71
2022/06/04 16:28:17;;;;;;;11.75;2.63;;;44.00;22.70;;;;;;6124646;29;20044;-72
2022/06/04 16:31:18;;;;;;;17.90;2.58;;;43.50;23.10;;;;;;6126958;29;20070;-72
2022/06/04 16:34:19;;;;;;;17.23;3.28;;;43.10;23.50;;;;;;6110160;29;20067;-72
2022/06/04 16:37:39;;;;;;;10.35;3.15;;;42.50;23.80;;;;;;6110821;29;20031;-72
2022/06/04 16:44:21;;;;;;;16.92;3.33;;;41.10;24.90;;;;;;6153739;28;20365;-72
2022/06/04 16:47:43;;;;;;;14.65;2.47;;;40.30;25.60;;;;;;6188599;28;20027;-72
2022/06/04 16:50:45;;;;;;;17.08;2.83;;;39.60;26.30;;;;;;6158537;28;20043;-72
2022/06/04 16:53:46;;;;;;;15.38;2.60;;;39.20;26.80;;;;;;6188086;28;20034;-72
2022/06/04 16:56:47;;;;;;;12.48;2.92;;;38.80;27.10;;;;;;6196064;28;20094;-72